CYHZ/YHZ METAR and TAF weather

Enter ICAO airport designator
Station Type Date Time Source
CYHZ METAR 2019/06/16 07:00 UTC NOAA

CYHZ 160700Z 19010KT 15SM SCT150 BKN300 13/08 A2990 RMK AC4CI1 SLP126 DENSITY ALT 500FT


Station Type Date Time Source
CYHZ Decoded METAR 2019/06/16 07:00 UTC NOAA

Halifax International Airport , Canada (CYHZ) 44-53N 063-30W
Jun 16, 2019 - 03:00 AM EDT / 2019.06.16 0700 UTC
Wind: from the S (190 degrees) at 12 MPH (10 KT):0
Visibility: 15 mile(s):0
Sky conditions: mostly cloudy
Temperature: 55 F (13 C)
Dew Point: 46 F (8 C)
Relative Humidity: 71%
Pressure (altimeter): 29.9 in. Hg (1012 hPa)
ob: CYHZ 160700Z 19010KT 15SM SCT150 BKN300 13/08 A2990 RMK AC4CI1 SLP126 DENSITY ALT 500FT
cycle: 7

Station Type Date Time Source
CYHZ TAF 2019/06/16 06:39 UTC NOAA

TAF CYHZ 160538Z 1606/1706 19010KT P6SM SKC
FM160900 20007KT P6SM BKN130
FM161200 22012KT P6SM BKN050
FM161800 22012KT P6SM FEW050
FM162100 22012G22KT P6SM BKN030
TEMPO 1621/1624 P6SM -SHRA BKN015 BKN030
FM170000 21010KT P6SM FEW012 SCT030
FM170300 21007KT 6SM BR BKN005
RMK NXT FCST BY 160900Z

Example: see airport list